TimeCDT,TemperatureF,Dew PointF,Humidity,Sea Level PressureIn,VisibilityMPH,Wind Direction,Wind SpeedMPH,Gust SpeedMPH,PrecipitationIn,Events,Conditions,WindDirDegrees,DateUTC
12:01 AM,71.6,71.6,100,30.13,0.2,Calm,Calm,-,N/A,Fog,Fog,0,2013-07-15 05:01:00
12:12 AM,71.6,69.8,94,30.13,0.5,Calm,Calm,-,N/A,Fog,Fog,0,2013-07-15 05:12:00
12:20 AM,69.8,69.8,100,30.13,1.2,ENE,3.5,-,N/A,,Partly Cloudy,60,2013-07-15 05:20:00
12:29 AM,69.8,69.8,100,30.13,2.5,Calm,Calm,-,N/A,,Partly Cloudy,0,2013-07-15 05:29:00
12:53 AM,72.0,71.1,97,30.12,2.5,Calm,Calm,-,N/A,,Clear,0,2013-07-15 05:53:00
1:02 AM,71.6,71.6,100,30.13,3.0,Calm,Calm,-,N/A,,Clear,0,2013-07-15 06:02:00
1:38 AM,71.6,71.6,100,30.13,1.8,Calm,Calm,-,N/A,,Clear,0,2013-07-15 06:38:00
1:53 AM,71.1,70.0,96,30.12,1.8,Calm,Calm,-,N/A,,Clear,0,2013-07-15 06:53:00
1:59 AM,71.6,71.6,100,30.13,3.0,Calm,Calm,-,N/A,,Clear,0,2013-07-15 06:59:00
2:20 AM,71.6,69.8,94,30.13,2.5,SE,3.5,-,N/A,,Clear,140,2013-07-15 07:20:00
2:29 AM,71.6,69.8,94,30.13,9.0,ESE,3.5,-,N/A,,Clear,120,2013-07-15 07:29:00
2:53 AM,70.0,69.1,97,30.12,5.0,East,3.5,-,N/A,,Clear,90,2013-07-15 07:53:00
3:53 AM,71.1,70.0,96,30.13,9.0,East,4.6,-,N/A,,Clear,100,2013-07-15 08:53:00
4:53 AM,72.0,71.1,97,30.13,10.0,SE,3.5,-,N/A,,Clear,130,2013-07-15 09:53:00
5:53 AM,71.1,70.0,96,30.17,8.0,SE,3.5,-,N/A,,Partly Cloudy,130,2013-07-15 10:53:00
6:53 AM,73.9,72.0,93,30.19,10.0,ESE,4.6,-,N/A,,Partly Cloudy,120,2013-07-15 11:53:00
7:53 AM,77.0,73.0,88,30.20,10.0,SE,8.1,-,N/A,,Clear,140,2013-07-15 12:53:00
8:53 AM,80.1,73.0,79,30.20,10.0,SSE,8.1,-,N/A,,Clear,150,2013-07-15 13:53:00
9:26 AM,80.6,73.4,79,30.22,10.0,SSE,9.2,-,N/A,,Mostly Cloudy,160,2013-07-15 14:26:00
9:53 AM,82.9,73.9,74,30.21,10.0,SSE,8.1,-,N/A,,Mostly Cloudy,160,2013-07-15 14:53:00
10:53 AM,84.0,73.9,72,30.22,10.0,SSE,9.2,-,N/A,,Mostly Cloudy,160,2013-07-15 15:53:00
11:32 AM,82.4,73.4,74,30.23,10.0,SW,5.8,-,N/A,,Mostly Cloudy,220,2013-07-15 16:32:00
11:49 AM,84.2,73.4,70,30.23,10.0,South,6.9,-,N/A,,Overcast,170,2013-07-15 16:49:00
11:53 AM,84.9,73.9,69,30.21,10.0,SSE,8.1,-,N/A,,Mostly Cloudy,150,2013-07-15 16:53:00
12:53 PM,82.0,73.9,76,30.21,10.0,SW,4.6,-,0.00,Rain,Light Rain,220,2013-07-15 17:53:00
1:53 PM,86.0,73.9,67,30.19,10.0,South,6.9,-,0.00,,Mostly Cloudy,180,2013-07-15 18:53:00
2:53 PM,86.0,73.0,65,30.18,10.0,SSE,8.1,-,0.00,,Overcast,150,2013-07-15 19:53:00
3:53 PM,87.1,73.9,65,30.17,10.0,East,10.4,-,N/A,,Partly Cloudy,80,2013-07-15 20:53:00
4:53 PM,84.9,72.0,65,30.16,10.0,East,10.4,-,N/A,,Scattered Clouds,100,2013-07-15 21:53:00
5:53 PM,87.1,72.0,61,30.15,10.0,East,11.5,-,N/A,,Clear,100,2013-07-15 22:53:00
6:53 PM,84.9,72.0,65,30.16,10.0,ESE,9.2,-,N/A,,Partly Cloudy,110,2013-07-15 23:53:00
7:53 PM,82.0,72.0,71,30.18,10.0,ESE,4.6,-,N/A,,Clear,120,2013-07-16 00:53:00
8:53 PM,79.0,72.0,79,30.19,10.0,Calm,Calm,-,N/A,,Clear,0,2013-07-16 01:53:00
9:53 PM,75.9,72.0,87,30.21,10.0,ESE,5.8,-,N/A,,Clear,120,2013-07-16 02:53:00
10:53 PM,75.9,71.1,85,30.22,10.0,SSE,3.5,-,N/A,,Clear,160,2013-07-16 03:53:00
11:53 PM,75.0,70.0,84,30.22,10.0,SSE,3.5,-,N/A,,Clear,160,2013-07-16 04:53:00